sensor_id;sensor_type;location;lat;lon;timestamp;temperature;humidity
11112;DHT22;5609;49.466;8.468;2023-12-14T00:01:15;11.90;99.90
11112;DHT22;5609;49.466;8.468;2023-12-14T00:03:45;12.10;99.90
11112;DHT22;5609;49.466;8.468;2023-12-14T00:06:12;12.20;99.90
11112;DHT22;5609;49.466;8.468;2023-12-14T00:08:40;12.30;99.90
11112;DHT22;5609;49.466;8.468;2023-12-14T00:11:09;12.10;99.90
11112;DHT22;5609;49.466;8.468;2023-12-14T00:13:36;12.10;99.90
11112;DHT22;5609;49.466;8.468;2023-12-14T00:16:06;11.90;99.90
11112;DHT22;5609;49.466;8.468;2023-12-14T00:18:34;11.80;99.90
11112;DHT22;5609;49.466;8.468;2023-12-14T00:21:03;11.70;99.90
11112;DHT22;5609;49.466;8.468;2023-12-14T00:23:30;11.60;99.90
11112;DHT22;5609;49.466;8.468;2023-12-14T00:26:05;11.70;99.90
11112;DHT22;5609;49.466;8.468;2023-12-14T00:28:33;11.60;99.90
11112;DHT22;5609;49.466;8.468;2023-12-14T00:31:01;11.50;99.90
11112;DHT22;5609;49.466;8.468;2023-12-14T00:33:28;11.40;99.90
11112;DHT22;5609;49.466;8.468;2023-12-14T00:35:55;11.30;99.90
11112;DHT22;5609;49.466;8.468;2023-12-14T00:38:26;11.40;99.90
11112;DHT22;5609;49.466;8.468;2023-12-14T00:40:53;11.30;99.90
11112;DHT22;5609;49.466;8.468;2023-12-14T00:43:21;11.20;99.90
11112;DHT22;5609;49.466;8.468;2023-12-14T00:45:50;11.20;99.90
11112;DHT22;5609;49.466;8.468;2023-12-14T00:48:18;11.30;99.90
11112;DHT22;5609;49.466;8.468;2023-12-14T00:50:44;11.40;99.90
11112;DHT22;5609;49.466;8.468;2023-12-14T00:53:11;11.40;99.90
11112;DHT22;5609;49.466;8.468;2023-12-14T00:55:38;11.40;99.90
11112;DHT22;5609;49.466;8.468;2023-12-14T00:58:05;11.30;99.90
11112;DHT22;5609;49.466;8.468;2023-12-14T01:00:34;11.30;99.90
11112;DHT22;5609;49.466;8.468;2023-12-14T01:03:01;11.20;99.90
11112;DHT22;5609;49.466;8.468;2023-12-14T01:05:28;11.20;99.90
11112;DHT22;5609;49.466;8.468;2023-12-14T01:07:56;11.20;99.90
11112;DHT22;5609;49.466;8.468;2023-12-14T01:10:23;11.10;99.90
11112;DHT22;5609;49.466;8.468;2023-12-14T01:12:50;11.10;99.90
11112;DHT22;5609;49.466;8.468;2023-12-14T01:15:17;11.10;99.90
11112;DHT22;5609;49.466;8.468;2023-12-14T01:17:45;11.10;99.90
11112;DHT22;5609;49.466;8.468;2023-12-14T01:20:12;11.10;99.90
11112;DHT22;5609;49.466;8.468;2023-12-14T01:22:39;11.10;99.90
11112;DHT22;5609;49.466;8.468;2023-12-14T01:25:07;11.10;99.90
11112;DHT22;5609;49.466;8.468;2023-12-14T01:27:34;11.10;99.90
11112;DHT22;5609;49.466;8.468;2023-12-14T01:30:01;11.20;99.90
11112;DHT22;5609;49.466;8.468;2023-12-14T01:32:27;11.20;99.90
11112;DHT22;5609;49.466;8.468;2023-12-14T01:34:56;11.10;99.90
11112;DHT22;5609;49.466;8.468;2023-12-14T01:37:24;11.10;99.90
11112;DHT22;5609;49.466;8.468;2023-12-14T01:39:51;11.10;99.90
11112;DHT22;5609;49.466;8.468;2023-12-14T01:42:18;11.10;99.90
11112;DHT22;5609;49.466;8.468;2023-12-14T01:44:47;11.10;99.90
11112;DHT22;5609;49.466;8.468;2023-12-14T01:47:14;11.00;99.90
11112;DHT22;5609;49.466;8.468;2023-12-14T01:49:41;11.00;99.90
11112;DHT22;5609;49.466;8.468;2023-12-14T01:52:09;10.80;99.90
11112;DHT22;5609;49.466;8.468;2023-12-14T01:54:39;10.90;99.90
11112;DHT22;5609;49.466;8.468;2023-12-14T01:57:07;10.90;99.90
11112;DHT22;5609;49.466;8.468;2023-12-14T01:59:34;11.00;99.90
11112;DHT22;5609;49.466;8.468;2023-12-14T02:02:01;11.10;99.90
11112;DHT22;5609;49.466;8.468;2023-12-14T02:04:30;11.10;99.90
11112;DHT22;5609;49.466;8.468;2023-12-14T02:10:14;11.10;99.90
11112;DHT22;5609;49.466;8.468;2023-12-14T02:12:41;11.20;99.90
11112;DHT22;5609;49.466;8.468;2023-12-14T02:15:10;11.20;99.90
11112;DHT22;5609;49.466;8.468;2023-12-14T02:17:37;11.20;99.90
11112;DHT22;5609;49.466;8.468;2023-12-14T02:23:31;11.00;99.90
11112;DHT22;5609;49.466;8.468;2023-12-14T02:25:59;11.00;99.90
11112;DHT22;5609;49.466;8.468;2023-12-14T02:28:26;11.10;99.90
11112;DHT22;5609;49.466;8.468;2023-12-14T02:30:53;11.20;99.90
11112;DHT22;5609;49.466;8.468;2023-12-14T02:33:20;11.20;99.90
11112;DHT22;5609;49.466;8.468;2023-12-14T02:35:47;11.20;99.90
11112;DHT22;5609;49.466;8.468;2023-12-14T03:09:11;11.40;99.90
11112;DHT22;5609;49.466;8.468;2023-12-14T03:11:38;11.40;99.90
11112;DHT22;5609;49.466;8.468;2023-12-14T03:14:07;11.40;99.90
11112;DHT22;5609;49.466;8.468;2023-12-14T03:16:35;11.50;99.90
11112;DHT22;5609;49.466;8.468;2023-12-14T03:19:03;11.50;99.90
11112;DHT22;5609;49.466;8.468;2023-12-14T03:21:30;11.50;99.90
11112;DHT22;5609;49.466;8.468;2023-12-14T03:24:01;11.50;99.90
11112;DHT22;5609;49.466;8.468;2023-12-14T03:30:19;11.40;99.90
11112;DHT22;5609;49.466;8.468;2023-12-14T03:33:00;11.30;99.90
11112;DHT22;5609;49.466;8.468;2023-12-14T03:35:33;11.30;99.90
11112;DHT22;5609;49.466;8.468;2023-12-14T03:38:01;11.30;99.90
11112;DHT22;5609;49.466;8.468;2023-12-14T03:40:28;11.30;99.90
11112;DHT22;5609;49.466;8.468;2023-12-14T03:42:55;11.40;99.90
11112;DHT22;5609;49.466;8.468;2023-12-14T03:45:24;11.50;99.90
11112;DHT22;5609;49.466;8.468;2023-12-14T03:47:51;11.50;99.90
11112;DHT22;5609;49.466;8.468;2023-12-14T03:50:20;11.50;99.90
11112;DHT22;5609;49.466;8.468;2023-12-14T03:52:47;11.50;99.90
11112;DHT22;5609;49.466;8.468;2023-12-14T03:55:14;11.50;99.90
11112;DHT22;5609;49.466;8.468;2023-12-14T03:57:41;11.50;99.90
11112;DHT22;5609;49.466;8.468;2023-12-14T04:00:11;11.40;99.90
11112;DHT22;5609;49.466;8.468;2023-12-14T04:02:41;11.40;99.90
11112;DHT22;5609;49.466;8.468;2023-12-14T04:05:10;11.40;99.90
11112;DHT22;5609;49.466;8.468;2023-12-14T04:07:39;11.40;99.90
11112;DHT22;5609;49.466;8.468;2023-12-14T04:10:08;11.40;99.90
11112;DHT22;5609;49.466;8.468;2023-12-14T04:12:35;11.40;99.90
11112;DHT22;5609;49.466;8.468;2023-12-14T04:15:07;11.40;99.90
11112;DHT22;5609;49.466;8.468;2023-12-14T04:17:34;11.20;99.90
11112;DHT22;5609;49.466;8.468;2023-12-14T04:20:08;11.30;99.90
11112;DHT22;5609;49.466;8.468;2023-12-14T04:22:35;11.20;99.90
11112;DHT22;5609;49.466;8.468;2023-12-14T04:25:04;11.10;99.90
11112;DHT22;5609;49.466;8.468;2023-12-14T04:27:31;11.20;99.90
11112;DHT22;5609;49.466;8.468;2023-12-14T04:29:59;11.20;99.90
11112;DHT22;5609;49.466;8.468;2023-12-14T04:32:28;11.00;99.90
11112;DHT22;5609;49.466;8.468;2023-12-14T04:34:55;11.10;99.90
11112;DHT22;5609;49.466;8.468;2023-12-14T04:37:25;11.10;99.90
11112;DHT22;5609;49.466;8.468;2023-12-14T04:40:12;11.10;99.90
11112;DHT22;5609;49.466;8.468;2023-12-14T04:42:53;11.10;99.90
11112;DHT22;5609;49.466;8.468;2023-12-14T04:45:20;11.20;99.90
11112;DHT22;5609;49.466;8.468;2023-12-14T04:47:51;11.30;99.90
11112;DHT22;5609;49.466;8.468;2023-12-14T04:50:20;11.30;99.90
11112;DHT22;5609;49.466;8.468;2023-12-14T04:52:50;11.30;99.90
11112;DHT22;5609;49.466;8.468;2023-12-14T04:55:18;11.30;99.90
11112;DHT22;5609;49.466;8.468;2023-12-14T04:57:45;11.30;99.90
11112;DHT22;5609;49.466;8.468;2023-12-14T05:00:15;11.30;99.90
11112;DHT22;5609;49.466;8.468;2023-12-14T05:02:46;11.40;99.90
11112;DHT22;5609;49.466;8.468;2023-12-14T05:05:14;11.30;99.90
11112;DHT22;5609;49.466;8.468;2023-12-14T05:07:41;11.30;99.90
11112;DHT22;5609;49.466;8.468;2023-12-14T05:13:09;11.30;99.90
11112;DHT22;5609;49.466;8.468;2023-12-14T05:15:36;11.30;99.90
11112;DHT22;5609;49.466;8.468;2023-12-14T05:18:04;11.40;99.90
11112;DHT22;5609;49.466;8.468;2023-12-14T05:20:31;11.30;99.90
11112;DHT22;5609;49.466;8.468;2023-12-14T05:23:12;11.20;99.90
11112;DHT22;5609;49.466;8.468;2023-12-14T05:25:40;11.20;99.90
11112;DHT22;5609;49.466;8.468;2023-12-14T05:28:08;11.20;99.90
11112;DHT22;5609;49.466;8.468;2023-12-14T05:30:36;11.30;99.90
11112;DHT22;5609;49.466;8.468;2023-12-14T05:33:03;11.30;99.90
11112;DHT22;5609;49.466;8.468;2023-12-14T05:35:30;11.30;99.90
11112;DHT22;5609;49.466;8.468;2023-12-14T05:37:58;11.20;99.90
11112;DHT22;5609;49.466;8.468;2023-12-14T05:40:25;11.20;99.90
11112;DHT22;5609;49.466;8.468;2023-12-14T05:42:52;11.10;99.90
11112;DHT22;5609;49.466;8.468;2023-12-14T05:45:28;11.00;99.90
11112;DHT22;5609;49.466;8.468;2023-12-14T05:48:05;10.90;99.90
11112;DHT22;5609;49.466;8.468;2023-12-14T05:50:32;11.00;99.90
11112;DHT22;5609;49.466;8.468;2023-12-14T05:53:02;11.10;99.90
11112;DHT22;5609;49.466;8.468;2023-12-14T05:55:29;11.00;99.90
11112;DHT22;5609;49.466;8.468;2023-12-14T05:58:05;11.00;99.90
11112;DHT22;5609;49.466;8.468;2023-12-14T06:00:41;11.00;99.90
11112;DHT22;5609;49.466;8.468;2023-12-14T06:03:07;10.90;99.90
11112;DHT22;5609;49.466;8.468;2023-12-14T06:05:34;10.70;99.90
11112;DHT22;5609;49.466;8.468;2023-12-14T06:08:05;10.40;99.90
11112;DHT22;5609;49.466;8.468;2023-12-14T06:10:33;10.10;99.90
11112;DHT22;5609;49.466;8.468;2023-12-14T06:12:59;9.90;99.90
11112;DHT22;5609;49.466;8.468;2023-12-14T06:15:27;9.60;99.90
11112;DHT22;5609;49.466;8.468;2023-12-14T06:17:56;9.40;99.90
11112;DHT22;5609;49.466;8.468;2023-12-14T06:20:22;9.30;99.90
11112;DHT22;5609;49.466;8.468;2023-12-14T06:22:51;9.10;99.90
11112;DHT22;5609;49.466;8.468;2023-12-14T06:25:18;8.90;99.90
11112;DHT22;5609;49.466;8.468;2023-12-14T06:27:46;8.70;99.90
11112;DHT22;5609;49.466;8.468;2023-12-14T06:30:13;8.60;99.90
11112;DHT22;5609;49.466;8.468;2023-12-14T06:32:40;8.60;99.90
11112;DHT22;5609;49.466;8.468;2023-12-14T06:35:09;8.50;99.90
11112;DHT22;5609;49.466;8.468;2023-12-14T06:37:36;8.40;99.90
11112;DHT22;5609;49.466;8.468;2023-12-14T06:40:04;8.40;99.90
11112;DHT22;5609;49.466;8.468;2023-12-14T06:42:31;8.30;99.90
11112;DHT22;5609;49.466;8.468;2023-12-14T06:44:58;8.40;99.90
11112;DHT22;5609;49.466;8.468;2023-12-14T06:47:25;8.40;99.90
11112;DHT22;5609;49.466;8.468;2023-12-14T06:49:53;8.40;99.90
11112;DHT22;5609;49.466;8.468;2023-12-14T06:52:24;8.40;99.90
11112;DHT22;5609;49.466;8.468;2023-12-14T06:54:51;8.40;99.90
11112;DHT22;5609;49.466;8.468;2023-12-14T06:57:20;8.40;99.90
11112;DHT22;5609;49.466;8.468;2023-12-14T06:59:47;8.30;99.90
11112;DHT22;5609;49.466;8.468;2023-12-14T07:02:14;8.30;99.90
11112;DHT22;5609;49.466;8.468;2023-12-14T07:04:44;8.40;99.90
11112;DHT22;5609;49.466;8.468;2023-12-14T07:07:11;8.30;99.90
11112;DHT22;5609;49.466;8.468;2023-12-14T07:09:40;8.20;99.90
11112;DHT22;5609;49.466;8.468;2023-12-14T07:12:11;8.20;99.90
11112;DHT22;5609;49.466;8.468;2023-12-14T07:14:39;8.20;99.90
11112;DHT22;5609;49.466;8.468;2023-12-14T07:17:06;8.20;99.90
11112;DHT22;5609;49.466;8.468;2023-12-14T07:19:32;8.20;99.90
11112;DHT22;5609;49.466;8.468;2023-12-14T07:21:59;8.20;99.90
11112;DHT22;5609;49.466;8.468;2023-12-14T07:24:26;8.20;99.90
11112;DHT22;5609;49.466;8.468;2023-12-14T07:26:55;8.20;99.90
11112;DHT22;5609;49.466;8.468;2023-12-14T07:29:21;8.20;99.90
11112;DHT22;5609;49.466;8.468;2023-12-14T07:31:49;8.20;99.90
11112;DHT22;5609;49.466;8.468;2023-12-14T07:34:19;8.20;99.90
11112;DHT22;5609;49.466;8.468;2023-12-14T07:36:47;8.20;99.90
11112;DHT22;5609;49.466;8.468;2023-12-14T07:39:14;8.10;99.90
11112;DHT22;5609;49.466;8.468;2023-12-14T07:41:42;8.20;99.90
11112;DHT22;5609;49.466;8.468;2023-12-14T07:44:10;8.20;99.90
11112;DHT22;5609;49.466;8.468;2023-12-14T07:46:38;8.20;99.90
11112;DHT22;5609;49.466;8.468;2023-12-14T07:49:07;8.30;99.90
11112;DHT22;5609;49.466;8.468;2023-12-14T07:51:34;8.30;99.90
11112;DHT22;5609;49.466;8.468;2023-12-14T07:54:01;8.40;99.90
11112;DHT22;5609;49.466;8.468;2023-12-14T07:56:29;8.40;99.90
11112;DHT22;5609;49.466;8.468;2023-12-14T07:58:58;8.40;99.90
11112;DHT22;5609;49.466;8.468;2023-12-14T08:01:26;8.40;99.90
11112;DHT22;5609;49.466;8.468;2023-12-14T08:03:53;8.40;99.90
11112;DHT22;5609;49.466;8.468;2023-12-14T08:06:20;8.40;99.90
11112;DHT22;5609;49.466;8.468;2023-12-14T08:08:47;8.30;99.90
11112;DHT22;5609;49.466;8.468;2023-12-14T08:11:14;8.40;99.90
11112;DHT22;5609;49.466;8.468;2023-12-14T08:13:40;8.40;99.90
11112;DHT22;5609;49.466;8.468;2023-12-14T08:16:07;8.40;99.90
11112;DHT22;5609;49.466;8.468;2023-12-14T08:18:38;8.50;99.90
11112;DHT22;5609;49.466;8.468;2023-12-14T08:21:06;8.50;99.90
11112;DHT22;5609;49.466;8.468;2023-12-14T08:23:33;8.50;99.90
11112;DHT22;5609;49.466;8.468;2023-12-14T08:26:00;8.60;99.90
11112;DHT22;5609;49.466;8.468;2023-12-14T08:28:28;8.50;99.90
11112;DHT22;5609;49.466;8.468;2023-12-14T08:30:55;8.60;99.90
11112;DHT22;5609;49.466;8.468;2023-12-14T08:33:23;8.60;99.90
11112;DHT22;5609;49.466;8.468;2023-12-14T08:35:51;8.60;99.90
11112;DHT22;5609;49.466;8.468;2023-12-14T08:38:18;8.60;99.90
11112;DHT22;5609;49.466;8.468;2023-12-14T08:40:45;8.60;99.90
11112;DHT22;5609;49.466;8.468;2023-12-14T08:43:12;8.60;99.90
11112;DHT22;5609;49.466;8.468;2023-12-14T08:45:39;8.50;99.90
11112;DHT22;5609;49.466;8.468;2023-12-14T08:48:06;8.50;99.90
11112;DHT22;5609;49.466;8.468;2023-12-14T08:50:32;8.50;99.90
11112;DHT22;5609;49.466;8.468;2023-12-14T08:53:01;8.50;99.90
11112;DHT22;5609;49.466;8.468;2023-12-14T08:55:30;8.50;99.90
11112;DHT22;5609;49.466;8.468;2023-12-14T08:57:57;8.60;99.90
11112;DHT22;5609;49.466;8.468;2023-12-14T09:00:24;8.60;99.90
11112;DHT22;5609;49.466;8.468;2023-12-14T09:02:50;8.70;99.90
11112;DHT22;5609;49.466;8.468;2023-12-14T09:05:18;8.70;99.90
11112;DHT22;5609;49.466;8.468;2023-12-14T09:07:46;8.70;99.90
11112;DHT22;5609;49.466;8.468;2023-12-14T09:10:14;8.70;99.90
11112;DHT22;5609;49.466;8.468;2023-12-14T09:12:41;8.80;99.90
11112;DHT22;5609;49.466;8.468;2023-12-14T09:15:09;8.80;99.90
11112;DHT22;5609;49.466;8.468;2023-12-14T09:17:35;8.80;99.90
11112;DHT22;5609;49.466;8.468;2023-12-14T09:20:03;8.80;99.90
11112;DHT22;5609;49.466;8.468;2023-12-14T09:22:30;8.70;99.90
11112;DHT22;5609;49.466;8.468;2023-12-14T09:24:57;8.80;99.90
11112;DHT22;5609;49.466;8.468;2023-12-14T09:27:25;8.90;99.90
11112;DHT22;5609;49.466;8.468;2023-12-14T09:29:52;9.00;99.90
11112;DHT22;5609;49.466;8.468;2023-12-14T09:32:19;9.00;99.90
11112;DHT22;5609;49.466;8.468;2023-12-14T09:34:45;9.10;99.90
11112;DHT22;5609;49.466;8.468;2023-12-14T09:37:12;9.10;99.90
11112;DHT22;5609;49.466;8.468;2023-12-14T09:39:40;9.10;99.90
11112;DHT22;5609;49.466;8.468;2023-12-14T09:42:07;9.20;99.90
11112;DHT22;5609;49.466;8.468;2023-12-14T09:44:37;9.20;99.90
11112;DHT22;5609;49.466;8.468;2023-12-14T09:47:04;9.20;99.90
11112;DHT22;5609;49.466;8.468;2023-12-14T09:49:34;9.30;99.90
11112;DHT22;5609;49.466;8.468;2023-12-14T09:52:02;9.30;99.90
11112;DHT22;5609;49.466;8.468;2023-12-14T09:54:29;9.30;99.90
11112;DHT22;5609;49.466;8.468;2023-12-14T09:56:56;9.30;99.90
11112;DHT22;5609;49.466;8.468;2023-12-14T09:59:23;9.20;99.90
11112;DHT22;5609;49.466;8.468;2023-12-14T10:01:52;9.20;99.90
11112;DHT22;5609;49.466;8.468;2023-12-14T10:04:19;9.20;99.90
11112;DHT22;5609;49.466;8.468;2023-12-14T10:06:48;9.20;99.90
11112;DHT22;5609;49.466;8.468;2023-12-14T10:09:15;9.30;99.90
11112;DHT22;5609;49.466;8.468;2023-12-14T10:11:44;9.30;99.90
11112;DHT22;5609;49.466;8.468;2023-12-14T10:14:21;9.30;99.90
11112;DHT22;5609;49.466;8.468;2023-12-14T10:16:49;9.30;99.90
11112;DHT22;5609;49.466;8.468;2023-12-14T10:19:18;9.40;99.90
11112;DHT22;5609;49.466;8.468;2023-12-14T10:21:47;9.50;99.90
11112;DHT22;5609;49.466;8.468;2023-12-14T10:24:15;9.50;99.90
11112;DHT22;5609;49.466;8.468;2023-12-14T10:26:44;9.60;99.90
11112;DHT22;5609;49.466;8.468;2023-12-14T10:29:12;9.60;99.90
11112;DHT22;5609;49.466;8.468;2023-12-14T10:31:39;9.70;99.90
11112;DHT22;5609;49.466;8.468;2023-12-14T10:34:06;9.80;99.90
11112;DHT22;5609;49.466;8.468;2023-12-14T10:36:45;9.80;99.90
11112;DHT22;5609;49.466;8.468;2023-12-14T10:39:14;9.90;99.90
11112;DHT22;5609;49.466;8.468;2023-12-14T10:48:51;9.90;99.90
11112;DHT22;5609;49.466;8.468;2023-12-14T10:51:32;9.70;99.90
11112;DHT22;5609;49.466;8.468;2023-12-14T10:54:05;9.70;99.90
11112;DHT22;5609;49.466;8.468;2023-12-14T10:56:32;9.70;99.90
11112;DHT22;5609;49.466;8.468;2023-12-14T10:58:59;9.70;99.90
11112;DHT22;5609;49.466;8.468;2023-12-14T11:01:28;9.70;99.90
11112;DHT22;5609;49.466;8.468;2023-12-14T11:04:00;9.90;99.90
11112;DHT22;5609;49.466;8.468;2023-12-14T11:06:30;9.80;99.90
11112;DHT22;5609;49.466;8.468;2023-12-14T11:08:58;9.80;99.90
11112;DHT22;5609;49.466;8.468;2023-12-14T11:11:29;9.80;99.90
11112;DHT22;5609;49.466;8.468;2023-12-14T11:13:56;9.80;99.90
11112;DHT22;5609;49.466;8.468;2023-12-14T11:16:26;9.70;99.90
11112;DHT22;5609;49.466;8.468;2023-12-14T11:19:24;9.70;99.90
11112;DHT22;5609;49.466;8.468;2023-12-14T11:22:22;9.70;99.90
11112;DHT22;5609;49.466;8.468;2023-12-14T11:24:54;9.60;99.90
11112;DHT22;5609;49.466;8.468;2023-12-14T11:27:29;9.60;99.90
11112;DHT22;5609;49.466;8.468;2023-12-14T11:29:57;9.70;99.90
11112;DHT22;5609;49.466;8.468;2023-12-14T11:32:26;9.60;99.90
11112;DHT22;5609;49.466;8.468;2023-12-14T11:34:53;9.70;99.90
11112;DHT22;5609;49.466;8.468;2023-12-14T11:37:22;9.70;99.90
11112;DHT22;5609;49.466;8.468;2023-12-14T11:39:53;9.70;99.90
11112;DHT22;5609;49.466;8.468;2023-12-14T11:42:21;9.70;99.90
11112;DHT22;5609;49.466;8.468;2023-12-14T11:44:58;9.70;99.90
11112;DHT22;5609;49.466;8.468;2023-12-14T11:47:26;9.70;99.90
11112;DHT22;5609;49.466;8.468;2023-12-14T11:50:00;9.70;99.90
11112;DHT22;5609;49.466;8.468;2023-12-14T11:52:37;9.70;99.90
11112;DHT22;5609;49.466;8.468;2023-12-14T11:55:05;9.70;99.90
11112;DHT22;5609;49.466;8.468;2023-12-14T11:57:32;9.80;99.90
11112;DHT22;5609;49.466;8.468;2023-12-14T12:00:02;9.70;99.90
11112;DHT22;5609;49.466;8.468;2023-12-14T12:02:29;9.70;99.90
11112;DHT22;5609;49.466;8.468;2023-12-14T12:04:56;9.60;99.90
11112;DHT22;5609;49.466;8.468;2023-12-14T12:07:23;9.60;99.90
11112;DHT22;5609;49.466;8.468;2023-12-14T12:09:50;9.50;99.90
11112;DHT22;5609;49.466;8.468;2023-12-14T12:12:25;9.50;99.90
11112;DHT22;5609;49.466;8.468;2023-12-14T12:14:52;9.50;99.90
11112;DHT22;5609;49.466;8.468;2023-12-14T12:17:21;9.40;99.90
11112;DHT22;5609;49.466;8.468;2023-12-14T12:19:47;9.40;99.90
11112;DHT22;5609;49.466;8.468;2023-12-14T12:22:14;9.50;99.90
11112;DHT22;5609;49.466;8.468;2023-12-14T12:24:41;9.50;99.90
11112;DHT22;5609;49.466;8.468;2023-12-14T12:27:07;9.50;99.90
11112;DHT22;5609;49.466;8.468;2023-12-14T12:29:34;9.40;99.90
11112;DHT22;5609;49.466;8.468;2023-12-14T12:32:01;9.60;99.90
11112;DHT22;5609;49.466;8.468;2023-12-14T12:34:29;9.50;99.90
11112;DHT22;5609;49.466;8.468;2023-12-14T12:36:55;9.60;99.90
11112;DHT22;5609;49.466;8.468;2023-12-14T12:39:23;9.60;99.90
11112;DHT22;5609;49.466;8.468;2023-12-14T12:41:49;9.60;99.90
11112;DHT22;5609;49.466;8.468;2023-12-14T12:44:16;9.60;99.90
11112;DHT22;5609;49.466;8.468;2023-12-14T12:46:42;9.70;99.90
11112;DHT22;5609;49.466;8.468;2023-12-14T12:49:09;9.70;99.90
11112;DHT22;5609;49.466;8.468;2023-12-14T12:51:37;9.70;99.90
11112;DHT22;5609;49.466;8.468;2023-12-14T12:54:04;9.70;99.90
11112;DHT22;5609;49.466;8.468;2023-12-14T12:56:30;9.70;99.90
11112;DHT22;5609;49.466;8.468;2023-12-14T12:58:57;9.80;99.90
11112;DHT22;5609;49.466;8.468;2023-12-14T13:01:24;9.80;99.90
11112;DHT22;5609;49.466;8.468;2023-12-14T13:03:53;9.90;99.90
11112;DHT22;5609;49.466;8.468;2023-12-14T13:06:22;10.00;99.90
11112;DHT22;5609;49.466;8.468;2023-12-14T13:08:50;10.20;99.90
11112;DHT22;5609;49.466;8.468;2023-12-14T13:11:17;10.60;99.90
11112;DHT22;5609;49.466;8.468;2023-12-14T13:13:44;10.50;99.90
11112;DHT22;5609;49.466;8.468;2023-12-14T13:16:10;10.40;99.90
11112;DHT22;5609;49.466;8.468;2023-12-14T13:18:38;10.10;99.90
11112;DHT22;5609;49.466;8.468;2023-12-14T13:21:05;9.90;99.90
11112;DHT22;5609;49.466;8.468;2023-12-14T13:23:32;9.90;99.90
11112;DHT22;5609;49.466;8.468;2023-12-14T13:26:00;9.90;99.90
11112;DHT22;5609;49.466;8.468;2023-12-14T13:28:27;10.00;99.90
11112;DHT22;5609;49.466;8.468;2023-12-14T13:30:53;10.00;99.90
11112;DHT22;5609;49.466;8.468;2023-12-14T13:33:20;10.20;99.90
11112;DHT22;5609;49.466;8.468;2023-12-14T13:35:47;10.20;99.90
11112;DHT22;5609;49.466;8.468;2023-12-14T13:38:14;10.30;99.90
11112;DHT22;5609;49.466;8.468;2023-12-14T13:40:40;10.40;99.90
11112;DHT22;5609;49.466;8.468;2023-12-14T13:43:08;10.80;99.90
11112;DHT22;5609;49.466;8.468;2023-12-14T13:45:36;10.70;99.90
11112;DHT22;5609;49.466;8.468;2023-12-14T13:48:04;10.60;99.90
11112;DHT22;5609;49.466;8.468;2023-12-14T13:50:31;10.30;99.90
11112;DHT22;5609;49.466;8.468;2023-12-14T13:52:58;10.10;99.90
11112;DHT22;5609;49.466;8.468;2023-12-14T13:55:24;9.90;99.90
11112;DHT22;5609;49.466;8.468;2023-12-14T13:57:51;9.70;99.90
11112;DHT22;5609;49.466;8.468;2023-12-14T14:00:20;9.60;99.90
11112;DHT22;5609;49.466;8.468;2023-12-14T14:02:47;9.50;99.90
11112;DHT22;5609;49.466;8.468;2023-12-14T14:05:13;9.40;99.90
11112;DHT22;5609;49.466;8.468;2023-12-14T14:07:40;9.30;99.90
11112;DHT22;5609;49.466;8.468;2023-12-14T14:10:08;9.20;99.90
11112;DHT22;5609;49.466;8.468;2023-12-14T14:12:35;9.20;99.90
11112;DHT22;5609;49.466;8.468;2023-12-14T14:15:02;9.10;99.90
11112;DHT22;5609;49.466;8.468;2023-12-14T14:17:30;9.00;99.90
11112;DHT22;5609;49.466;8.468;2023-12-14T14:19:56;9.00;99.90
11112;DHT22;5609;49.466;8.468;2023-12-14T14:22:23;9.10;99.90
11112;DHT22;5609;49.466;8.468;2023-12-14T14:24:50;9.10;99.90
11112;DHT22;5609;49.466;8.468;2023-12-14T14:27:16;9.00;99.90
11112;DHT22;5609;49.466;8.468;2023-12-14T14:29:43;9.10;99.90
11112;DHT22;5609;49.466;8.468;2023-12-14T14:32:09;9.00;99.90
11112;DHT22;5609;49.466;8.468;2023-12-14T14:34:37;9.00;99.90
11112;DHT22;5609;49.466;8.468;2023-12-14T14:37:04;9.00;99.90
11112;DHT22;5609;49.466;8.468;2023-12-14T14:39:31;8.90;99.90
11112;DHT22;5609;49.466;8.468;2023-12-14T14:41:57;8.90;99.90
11112;DHT22;5609;49.466;8.468;2023-12-14T14:44:24;8.90;99.90
11112;DHT22;5609;49.466;8.468;2023-12-14T14:46:51;8.90;99.90
11112;DHT22;5609;49.466;8.468;2023-12-14T14:49:18;8.90;99.90
11112;DHT22;5609;49.466;8.468;2023-12-14T14:51:46;8.80;99.90
11112;DHT22;5609;49.466;8.468;2023-12-14T14:54:12;8.70;99.90
11112;DHT22;5609;49.466;8.468;2023-12-14T14:56:40;8.70;99.90
11112;DHT22;5609;49.466;8.468;2023-12-14T14:59:06;8.60;99.90
11112;DHT22;5609;49.466;8.468;2023-12-14T15:01:34;8.60;99.90
11112;DHT22;5609;49.466;8.468;2023-12-14T15:04:01;8.60;99.90
11112;DHT22;5609;49.466;8.468;2023-12-14T15:06:28;8.60;99.90
11112;DHT22;5609;49.466;8.468;2023-12-14T15:08:55;8.50;99.90
11112;DHT22;5609;49.466;8.468;2023-12-14T15:11:22;8.50;99.90
11112;DHT22;5609;49.466;8.468;2023-12-14T15:13:49;8.50;99.90
11112;DHT22;5609;49.466;8.468;2023-12-14T15:16:15;8.50;99.90
11112;DHT22;5609;49.466;8.468;2023-12-14T15:18:43;8.40;99.90
11112;DHT22;5609;49.466;8.468;2023-12-14T15:21:10;8.50;99.90
11112;DHT22;5609;49.466;8.468;2023-12-14T15:23:37;8.50;99.90
11112;DHT22;5609;49.466;8.468;2023-12-14T15:26:05;8.40;99.90
11112;DHT22;5609;49.466;8.468;2023-12-14T15:28:33;8.40;99.90
11112;DHT22;5609;49.466;8.468;2023-12-14T15:31:00;8.40;99.90
11112;DHT22;5609;49.466;8.468;2023-12-14T15:33:27;8.50;99.90
11112;DHT22;5609;49.466;8.468;2023-12-14T15:35:54;8.50;99.90
11112;DHT22;5609;49.466;8.468;2023-12-14T15:38:20;8.30;99.90
11112;DHT22;5609;49.466;8.468;2023-12-14T15:40:47;8.40;99.90
11112;DHT22;5609;49.466;8.468;2023-12-14T15:43:15;8.40;99.90
11112;DHT22;5609;49.466;8.468;2023-12-14T15:45:42;8.40;99.90
11112;DHT22;5609;49.466;8.468;2023-12-14T15:48:09;8.40;99.90
11112;DHT22;5609;49.466;8.468;2023-12-14T15:50:35;8.50;99.90
11112;DHT22;5609;49.466;8.468;2023-12-14T15:53:03;8.50;99.90
11112;DHT22;5609;49.466;8.468;2023-12-14T15:55:30;8.50;99.90
11112;DHT22;5609;49.466;8.468;2023-12-14T15:57:58;8.40;99.90
11112;DHT22;5609;49.466;8.468;2023-12-14T16:00:25;8.30;99.90
11112;DHT22;5609;49.466;8.468;2023-12-14T16:02:52;8.30;99.90
11112;DHT22;5609;49.466;8.468;2023-12-14T16:05:19;8.30;99.90
11112;DHT22;5609;49.466;8.468;2023-12-14T16:07:46;8.30;99.90
11112;DHT22;5609;49.466;8.468;2023-12-14T16:10:12;8.30;99.90
11112;DHT22;5609;49.466;8.468;2023-12-14T16:12:39;8.30;99.90
11112;DHT22;5609;49.466;8.468;2023-12-14T16:15:06;8.30;99.90
11112;DHT22;5609;49.466;8.468;2023-12-14T16:17:34;8.20;99.90
11112;DHT22;5609;49.466;8.468;2023-12-14T16:20:01;8.10;99.90
11112;DHT22;5609;49.466;8.468;2023-12-14T16:22:29;8.10;99.90
11112;DHT22;5609;49.466;8.468;2023-12-14T16:24:56;8.10;99.90
11112;DHT22;5609;49.466;8.468;2023-12-14T16:27:22;8.00;99.90
11112;DHT22;5609;49.466;8.468;2023-12-14T16:29:49;8.00;99.90
11112;DHT22;5609;49.466;8.468;2023-12-14T16:32:16;8.00;99.90
11112;DHT22;5609;49.466;8.468;2023-12-14T16:34:44;8.00;99.90
11112;DHT22;5609;49.466;8.468;2023-12-14T16:37:10;7.90;99.90
11112;DHT22;5609;49.466;8.468;2023-12-14T16:39:40;7.80;99.90
11112;DHT22;5609;49.466;8.468;2023-12-14T16:42:06;7.80;99.90
11112;DHT22;5609;49.466;8.468;2023-12-14T16:44:33;7.70;99.90
11112;DHT22;5609;49.466;8.468;2023-12-14T16:47:01;7.70;99.90
11112;DHT22;5609;49.466;8.468;2023-12-14T16:49:28;7.70;99.90
11112;DHT22;5609;49.466;8.468;2023-12-14T16:51:56;7.60;99.90